createdAt,value
2017-05-21T00:00:33.408Z,1021.43
2017-05-21T00:01:43.099Z,1021.46
2017-05-21T00:02:53.370Z,1021.44
2017-05-21T00:04:03.632Z,1021.45
2017-05-21T00:05:13.586Z,1021.43
2017-05-21T00:06:23.853Z,1021.47
2017-05-21T00:07:33.173Z,1021.45
2017-05-21T00:08:43.130Z,1021.49
2017-05-21T00:09:52.770Z,1021.47
2017-05-21T00:11:02.744Z,1021.46
2017-05-21T00:12:12.072Z,1021.43
2017-05-21T00:13:22.018Z,1021.44
2017-05-21T00:14:31.975Z,1021.45
2017-05-21T00:15:42.280Z,1021.46
2017-05-21T00:16:51.917Z,1021.48
2017-05-21T00:18:01.872Z,1021.45
2017-05-21T00:19:11.830Z,1021.46
2017-05-21T00:20:22.108Z,1021.48
2017-05-21T00:21:30.804Z,1021.44
2017-05-21T00:22:41.077Z,1021.43
2017-05-21T00:23:51.031Z,1021.46
2017-05-21T00:25:01.307Z,1021.43
2017-05-21T00:26:10.947Z,1021.47
2017-05-21T00:27:21.217Z,1021.45
2017-05-21T00:28:31.514Z,1021.49
2017-05-21T00:29:41.805Z,1021.53
2017-05-21T00:30:52.086Z,1021.53
2017-05-21T00:32:02.041Z,1021.52
2017-05-21T00:33:11.678Z,1021.56
2017-05-21T00:34:21.313Z,1021.54
2017-05-21T00:35:31.585Z,1021.53
2017-05-21T00:36:41.856Z,1021.51
2017-05-21T00:37:51.502Z,1021.55
2017-05-21T00:39:01.459Z,1021.55
2017-05-21T00:40:11.090Z,1021.54
2017-05-21T00:41:21.362Z,1021.56
2017-05-21T00:42:31.629Z,1021.52
2017-05-21T00:43:41.271Z,1021.53
2017-05-21T00:44:51.540Z,1021.52
2017-05-21T00:46:01.496Z,1021.48
2017-05-21T00:47:11.765Z,1021.48
2017-05-21T00:48:21.711Z,1021.51
2017-05-21T00:49:31.365Z,1021.47
2017-05-21T00:50:41.320Z,1021.49
2017-05-21T00:51:51.009Z,1021.46
2017-05-21T00:53:01.312Z,1021.49
2017-05-21T00:54:11.265Z,1021.49
2017-05-21T00:55:20.963Z,1021.51
2017-05-21T00:56:30.917Z,1021.49
2017-05-21T00:57:40.557Z,1021.52
2017-05-21T00:58:50.826Z,1021.47
2017-05-21T01:00:00.784Z,1021.52
2017-05-21T01:01:10.418Z,1021.5
2017-05-21T01:02:20.370Z,1021.54
2017-05-21T01:03:29.692Z,1021.54
2017-05-21T01:04:39.646Z,1021.55
2017-05-21T01:05:49.919Z,1021.52
2017-05-21T01:06:59.869Z,1021.56
2017-05-21T01:08:09.813Z,1021.55
2017-05-21T01:09:20.113Z,1021.56
2017-05-21T01:10:30.385Z,1021.61
2017-05-21T01:11:40.656Z,1021.59
2017-05-21T01:12:50.932Z,1021.64
2017-05-21T01:14:01.251Z,1021.59
2017-05-21T01:15:11.205Z,1021.59
2017-05-21T01:16:20.842Z,1021.58
2017-05-21T01:17:30.475Z,1021.6
2017-05-21T01:18:39.810Z,1021.58
2017-05-21T01:19:49.138Z,1021.57
2017-05-21T01:20:59.404Z,1021.62
2017-05-21T01:22:09.359Z,1021.6
2017-05-21T01:23:19.313Z,1021.63
2017-05-21T01:24:29.590Z,1021.64
2017-05-21T01:25:39.874Z,1021.6
2017-05-21T01:26:50.139Z,1021.65
2017-05-21T01:28:00.405Z,1021.67
2017-05-21T01:29:10.669Z,1021.68
2017-05-21T01:30:20.309Z,1021.62
2017-05-21T01:31:30.576Z,1021.65
2017-05-21T01:32:40.548Z,1021.69
2017-05-21T01:33:50.815Z,1021.65
2017-05-21T01:35:00.772Z,1021.64
2017-05-21T01:36:10.406Z,1021.67
2017-05-21T01:37:20.357Z,1021.62
2017-05-21T01:38:30.305Z,1021.64
2017-05-21T01:39:39.956Z,1021.62
2017-05-21T01:40:50.229Z,1021.6
2017-05-21T01:42:00.494Z,1021.63
2017-05-21T01:43:10.449Z,1021.65
2017-05-21T01:44:20.399Z,1021.65
2017-05-21T01:45:30.048Z,1021.68
2017-05-21T01:46:39.694Z,1021.66
2017-05-21T01:47:49.648Z,1021.62
2017-05-21T01:48:59.679Z,1021.7
2017-05-21T01:50:09.639Z,1021.68
2017-05-21T01:51:18.665Z,1021.68
2017-05-21T01:52:28.955Z,1021.67
2017-05-21T01:53:38.921Z,1021.66
2017-05-21T01:54:48.569Z,1021.66
2017-05-21T01:55:58.917Z,1021.68
2017-05-21T01:57:08.601Z,1021.7
2017-05-21T01:58:18.236Z,1021.73
2017-05-21T01:59:27.560Z,1021.7
2017-05-21T02:00:37.832Z,1021.71
2017-05-21T02:01:47.775Z,1021.72
2017-05-21T02:02:57.416Z,1021.75
2017-05-21T02:04:07.051Z,1021.72
2017-05-21T02:05:16.745Z,1021.75
2017-05-21T02:06:26.698Z,1021.73
2017-05-21T02:07:35.704Z,1021.75
2017-05-21T02:08:45.978Z,1021.7
2017-05-21T02:09:56.244Z,1021.75
2017-05-21T02:11:06.202Z,1021.7
2017-05-21T02:12:16.477Z,1021.71
2017-05-21T02:13:26.743Z,1021.72
2017-05-21T02:14:36.702Z,1021.7
2017-05-21T02:15:46.331Z,1021.74
2017-05-21T02:16:56.658Z,1021.72
2017-05-21T02:18:06.305Z,1021.74
2017-05-21T02:19:16.573Z,1021.73
2017-05-21T02:20:26.846Z,1021.72
2017-05-21T02:21:36.486Z,1021.71
2017-05-21T02:22:46.758Z,1021.73
2017-05-21T02:23:56.713Z,1021.75
2017-05-21T02:25:06.667Z,1021.77
2017-05-21T02:26:15.982Z,1021.76
2017-05-21T02:27:25.304Z,1021.78
2017-05-21T02:28:34.945Z,1021.76
2017-05-21T02:29:44.274Z,1021.73
2017-05-21T02:30:54.548Z,1021.72
2017-05-21T02:32:04.186Z,1021.72
2017-05-21T02:33:14.134Z,1021.71
2017-05-21T02:34:24.400Z,1021.73
2017-05-21T02:35:33.720Z,1021.71
2017-05-21T02:36:43.674Z,1021.74
2017-05-21T02:37:53.623Z,1021.75
2017-05-21T02:39:03.898Z,1021.77
2017-05-21T02:40:13.887Z,1021.79
2017-05-21T02:41:23.841Z,1021.75
2017-05-21T02:42:33.474Z,1021.76
2017-05-21T02:43:43.741Z,1021.79
2017-05-21T02:44:53.696Z,1021.77
2017-05-21T02:46:03.652Z,1021.82
2017-05-21T02:47:13.916Z,1021.77
2017-05-21T02:48:24.191Z,1021.77
2017-05-21T02:49:33.830Z,1021.83
2017-05-21T02:50:43.469Z,1021.8
2017-05-21T02:51:53.421Z,1021.85
2017-05-21T02:53:03.688Z,1021.82
2017-05-21T02:54:13.327Z,1021.86
2017-05-21T02:55:22.973Z,1021.87
2017-05-21T02:56:32.922Z,1021.87
2017-05-21T02:57:42.875Z,1021.88
2017-05-21T02:58:52.520Z,1021.89
2017-05-21T03:00:02.800Z,1021.9
2017-05-21T03:01:12.750Z,1021.93
2017-05-21T03:02:22.075Z,1021.92
2017-05-21T03:03:32.032Z,1021.93
2017-05-21T03:04:41.685Z,1021.93
2017-05-21T03:05:51.638Z,1021.96
2017-05-21T03:07:01.591Z,1022.01
2017-05-21T03:08:11.235Z,1022
2017-05-21T03:09:20.871Z,1022.02
2017-05-21T03:10:30.833Z,1022.01
2017-05-21T03:11:40.469Z,1022
2017-05-21T03:12:50.424Z,1022.01
2017-05-21T03:14:00.381Z,1022.02
2017-05-21T03:15:10.013Z,1022.03
2017-05-21T03:16:20.277Z,1022.02
2017-05-21T03:17:29.923Z,1022.02
2017-05-21T03:18:40.236Z,1022.01
2017-05-21T03:19:50.198Z,1022.03
2017-05-21T03:21:00.464Z,1022.01
2017-05-21T03:22:10.095Z,1022.04
2017-05-21T03:23:19.727Z,1022.03
2017-05-21T03:24:29.366Z,1022
2017-05-21T03:25:39.355Z,1021.97
2017-05-21T03:26:49.622Z,1022.01
2017-05-21T03:27:59.271Z,1022.04
2017-05-21T03:29:09.222Z,1022.08
2017-05-21T03:30:18.863Z,1022.05
2017-05-21T03:31:29.177Z,1022.05
2017-05-21T03:32:39.134Z,1022.04
2017-05-21T03:33:48.783Z,1022.08
2017-05-21T03:34:58.431Z,1022.05
2017-05-21T03:36:08.388Z,1022.04
2017-05-21T03:37:17.716Z,1022.03
2017-05-21T03:38:27.678Z,1022.06
2017-05-21T03:39:36.680Z,1022.03
2017-05-21T03:40:46.630Z,1022.03
2017-05-21T03:41:56.905Z,1022.06
2017-05-21T03:43:07.177Z,1022.03
2017-05-21T03:44:16.504Z,1022.04
2017-05-21T03:45:25.829Z,1022.06
2017-05-21T03:46:35.152Z,1022.09
2017-05-21T03:47:45.425Z,1022.08
2017-05-21T03:48:55.693Z,1022.09
2017-05-21T03:50:05.970Z,1022.07
2017-05-21T03:51:15.917Z,1022.09
2017-05-21T03:52:26.185Z,1022.07
2017-05-21T03:53:35.510Z,1022.06
2017-05-21T03:54:45.470Z,1022.04
2017-05-21T03:55:55.117Z,1022.06
2017-05-21T03:57:05.078Z,1022.1
2017-05-21T03:58:14.721Z,1022.12
2017-05-21T03:59:24.360Z,1022.11
2017-05-21T04:00:34.642Z,1022.1
2017-05-21T04:01:44.278Z,1022.09
2017-05-21T04:02:54.301Z,1022.13
2017-05-21T04:04:04.262Z,1022.15
2017-05-21T04:05:13.904Z,1022.15
2017-05-21T04:06:23.223Z,1022.16
2017-05-21T04:07:32.868Z,1022.2
2017-05-21T04:08:42.508Z,1022.2
2017-05-21T04:09:52.779Z,1022.21
2017-05-21T04:11:02.739Z,1022.23
2017-05-21T04:12:12.691Z,1022.22
2017-05-21T04:13:22.021Z,1022.24
2017-05-21T04:14:31.978Z,1022.31
2017-05-21T04:15:41.625Z,1022.32
2017-05-21T04:16:51.577Z,1022.31
2017-05-21T04:18:01.528Z,1022.34
2017-05-21T04:19:10.846Z,1022.31
2017-05-21T04:20:21.137Z,1022.31
2017-05-21T04:21:31.093Z,1022.34
2017-05-21T04:22:41.047Z,1022.35
2017-05-21T04:23:51.323Z,1022.32
2017-05-21T04:25:01.283Z,1022.33
2017-05-21T04:26:10.923Z,1022.34
2017-05-21T04:27:21.189Z,1022.36
2017-05-21T04:28:30.515Z,1022.36
2017-05-21T04:29:40.540Z,1022.36
2017-05-21T04:30:50.184Z,1022.29
2017-05-21T04:31:59.505Z,1022.34
2017-05-21T04:33:09.768Z,1022.34
2017-05-21T04:34:19.412Z,1022.35
2017-05-21T04:35:29.366Z,1022.35
2017-05-21T04:36:39.004Z,1022.39
2017-05-21T04:37:48.382Z,1022.38
2017-05-21T04:38:58.343Z,1022.36
2017-05-21T04:40:07.985Z,1022.41
2017-05-21T04:41:17.623Z,1022.44
2017-05-21T04:42:27.276Z,1022.45
2017-05-21T04:43:37.234Z,1022.45
2017-05-21T04:44:47.503Z,1022.45
2017-05-21T04:45:57.459Z,1022.46
2017-05-21T04:47:07.418Z,1022.46
2017-05-21T04:48:17.366Z,1022.47
2017-05-21T04:49:27.011Z,1022.48
2017-05-21T04:50:36.651Z,1022.54
2017-05-21T04:51:46.923Z,1022.52
2017-05-21T04:52:56.559Z,1022.52
2017-05-21T04:54:06.832Z,1022.52
2017-05-21T04:55:16.478Z,1022.54
2017-05-21T04:56:25.798Z,1022.53
2017-05-21T04:57:35.747Z,1022.58
2017-05-21T04:58:46.078Z,1022.58
2017-05-21T04:59:56.036Z,1022.57
2017-05-21T05:01:06.303Z,1022.56
2017-05-21T05:02:16.251Z,1022.56
2017-05-21T05:03:26.512Z,1022.59
2017-05-21T05:04:36.461Z,1022.61
2017-05-21T05:05:46.420Z,1022.58
2017-05-21T05:06:56.756Z,1022.64
2017-05-21T05:08:07.032Z,1022.64
2017-05-21T05:09:16.670Z,1022.64
2017-05-21T05:10:26.622Z,1022.71
2017-05-21T05:11:36.888Z,1022.74
2017-05-21T05:12:46.839Z,1022.7
2017-05-21T05:13:56.796Z,1022.75
2017-05-21T05:15:06.747Z,1022.7
2017-05-21T05:16:17.014Z,1022.74
2017-05-21T05:17:26.342Z,1022.71
2017-05-21T05:18:36.607Z,1022.76
2017-05-21T05:19:46.556Z,1022.73
2017-05-21T05:20:56.508Z,1022.73
2017-05-21T05:22:06.772Z,1022.78
2017-05-21T05:23:17.065Z,1022.76
2017-05-21T05:24:27.020Z,1022.78
2017-05-21T05:25:37.286Z,1022.75
2017-05-21T05:26:46.608Z,1022.76
2017-05-21T05:27:56.881Z,1022.8
2017-05-21T05:29:07.152Z,1022.76
2017-05-21T05:30:16.786Z,1022.84
2017-05-21T05:31:25.790Z,1022.81
2017-05-21T05:32:35.736Z,1022.85
2017-05-21T05:33:46.005Z,1022.88
2017-05-21T05:34:56.271Z,1022.9
2017-05-21T05:36:05.910Z,1022.91
2017-05-21T05:37:15.876Z,1022.89
2017-05-21T05:38:25.827Z,1022.91
2017-05-21T05:39:35.468Z,1022.95
2017-05-21T05:40:45.414Z,1022.92
2017-05-21T05:41:55.365Z,1022.91
2017-05-21T05:43:05.007Z,1022.89
2017-05-21T05:44:14.958Z,1022.9
2017-05-21T05:45:25.241Z,1022.91
2017-05-21T05:46:34.565Z,1022.96
2017-05-21T05:47:44.530Z,1022.99
2017-05-21T05:48:54.802Z,1022.99
2017-05-21T05:50:05.072Z,1022.99
2017-05-21T05:51:15.027Z,1022.97
2017-05-21T05:52:24.982Z,1023
2017-05-21T05:53:34.936Z,1022.99
2017-05-21T05:54:44.579Z,1023.03
2017-05-21T05:55:54.584Z,1022.98
2017-05-21T05:57:04.539Z,1023
2017-05-21T05:58:14.486Z,1022.98
2017-05-21T05:59:24.126Z,1023.02
2017-05-21T06:00:34.084Z,1023
2017-05-21T06:01:44.051Z,1023
2017-05-21T06:02:53.381Z,1023.02
2017-05-21T06:04:03.028Z,1023.03
2017-05-21T06:05:13.298Z,1023.05
2017-05-21T06:06:22.940Z,1023.07
2017-05-21T06:07:32.586Z,1023.1
2017-05-21T06:08:42.547Z,1023.11
2017-05-21T06:09:52.810Z,1023.1
2017-05-21T06:11:02.448Z,1023.15
2017-05-21T06:12:12.723Z,1023.18
2017-05-21T06:13:22.680Z,1023.16
2017-05-21T06:14:32.706Z,1023.18
2017-05-21T06:15:42.667Z,1023.17
2017-05-21T06:16:52.617Z,1023.2
2017-05-21T06:18:02.561Z,1023.21
2017-05-21T06:19:12.829Z,1023.18
2017-05-21T06:20:22.158Z,1023.21
2017-05-21T06:21:32.114Z,1023.24
2017-05-21T06:22:42.076Z,1023.21
2017-05-21T06:23:52.339Z,1023.31
2017-05-21T06:25:01.996Z,1023.31
2017-05-21T06:26:11.946Z,1023.26
2017-05-21T06:27:21.903Z,1023.31
2017-05-21T06:28:32.168Z,1023.32
2017-05-21T06:29:42.131Z,1023.32
2017-05-21T06:30:52.081Z,1023.36
2017-05-21T06:32:02.036Z,1023.34
2017-05-21T06:33:11.988Z,1023.34
2017-05-21T06:34:22.256Z,1023.34
2017-05-21T06:35:32.529Z,1023.31
2017-05-21T06:36:42.800Z,1023.34
2017-05-21T06:37:52.430Z,1023.32
2017-05-21T06:39:02.069Z,1023.3
2017-05-21T06:40:12.338Z,1023.3
2017-05-21T06:41:22.595Z,1023.3
2017-05-21T06:42:32.263Z,1023.28
2017-05-21T06:43:42.225Z,1023.27
2017-05-21T06:44:51.876Z,1023.28
2017-05-21T06:46:01.835Z,1023.28
2017-05-21T06:47:11.795Z,1023.23
2017-05-21T06:48:21.748Z,1023.26
2017-05-21T06:49:31.384Z,1023.24
2017-05-21T06:50:41.654Z,1023.2
2017-05-21T06:51:51.291Z,1023.29
2017-05-21T06:53:01.557Z,1023.28
2017-05-21T06:54:11.513Z,1023.27
2017-05-21T06:55:21.782Z,1023.28
2017-05-21T06:56:31.728Z,1023.3
2017-05-21T06:57:41.999Z,1023.34
2017-05-21T06:58:51.953Z,1023.28
2017-05-21T07:00:01.606Z,1023.33
2017-05-21T07:01:11.873Z,1023.32
2017-05-21T07:02:21.825Z,1023.35
2017-05-21T07:03:30.833Z,1023.37
2017-05-21T07:04:40.155Z,1023.28
2017-05-21T07:05:50.112Z,1023.38
2017-05-21T07:06:59.753Z,1023.38
2017-05-21T07:08:09.704Z,1023.36
2017-05-21T07:09:19.656Z,1023.41
2017-05-21T07:10:29.933Z,1023.4
2017-05-21T07:11:39.261Z,1023.43
2017-05-21T07:12:48.593Z,1023.46
2017-05-21T07:13:58.863Z,1023.38
2017-05-21T07:15:08.497Z,1023.42
2017-05-21T07:16:18.137Z,1023.38
2017-05-21T07:17:27.768Z,1023.38
2017-05-21T07:18:38.035Z,1023.42
2017-05-21T07:19:47.674Z,1023.39
2017-05-21T07:20:57.941Z,1023.43
2017-05-21T07:22:07.893Z,1023.48
2017-05-21T07:23:17.843Z,1023.42
2017-05-21T07:24:27.788Z,1023.46
2017-05-21T07:25:37.743Z,1023.48
2017-05-21T07:26:47.383Z,1023.44
2017-05-21T07:27:57.024Z,1023.48
2017-05-21T07:29:06.979Z,1023.44
2017-05-21T07:30:16.613Z,1023.43
2017-05-21T07:31:26.255Z,1023.48
2017-05-21T07:32:36.205Z,1023.45
2017-05-21T07:33:46.165Z,1023.45
2017-05-21T07:34:55.803Z,1023.5
2017-05-21T07:36:05.761Z,1023.48
2017-05-21T07:37:16.029Z,1023.48
2017-05-21T07:38:26.297Z,1023.44
2017-05-21T07:39:36.249Z,1023.47
2017-05-21T07:40:45.889Z,1023.46
2017-05-21T07:41:55.538Z,1023.46
2017-05-21T07:43:05.486Z,1023.44
2017-05-21T07:44:14.810Z,1023.43
2017-05-21T07:45:25.077Z,1023.44
2017-05-21T07:46:35.349Z,1023.52
2017-05-21T07:47:45.298Z,1023.46
2017-05-21T07:48:54.620Z,1023.49
2017-05-21T07:50:04.259Z,1023.47
2017-05-21T07:51:13.581Z,1023.48
2017-05-21T07:52:23.215Z,1023.46
2017-05-21T07:53:33.482Z,1023.45
2017-05-21T07:54:43.426Z,1023.46
2017-05-21T07:55:53.381Z,1023.45
2017-05-21T07:57:02.388Z,1023.47
2017-05-21T07:58:12.340Z,1023.5
2017-05-21T07:59:22.611Z,1023.49
2017-05-21T08:00:32.882Z,1023.54
2017-05-21T08:01:42.833Z,1023.5
2017-05-21T08:02:52.845Z,1023.51
2017-05-21T08:04:02.803Z,1023.55
2017-05-21T08:05:12.444Z,1023.51
2017-05-21T08:06:22.396Z,1023.53
2017-05-21T08:07:32.030Z,1023.51
2017-05-21T08:08:42.300Z,1023.51
2017-05-21T08:09:52.306Z,1023.52
2017-05-21T08:11:02.258Z,1023.54
2017-05-21T08:12:12.210Z,1023.5
2017-05-21T08:13:22.486Z,1023.54
2017-05-21T08:14:32.131Z,1023.54
2017-05-21T08:15:42.090Z,1023.52
2017-05-21T08:16:52.040Z,1023.52
2017-05-21T08:18:01.991Z,1023.56
2017-05-21T08:19:11.945Z,1023.55
2017-05-21T08:20:22.232Z,1023.49
2017-05-21T08:21:32.180Z,1023.55
2017-05-21T08:22:42.130Z,1023.53
2017-05-21T08:23:51.765Z,1023.56
2017-05-21T08:25:02.088Z,1023.53
2017-05-21T08:26:12.354Z,1023.56
2017-05-21T08:27:21.674Z,1023.57
2017-05-21T08:28:30.677Z,1023.55
2017-05-21T08:29:40.631Z,1023.52
2017-05-21T08:30:50.905Z,1023.58
2017-05-21T08:32:00.855Z,1023.55
2017-05-21T08:33:10.816Z,1023.5
2017-05-21T08:34:20.769Z,1023.55
2017-05-21T08:35:30.428Z,1023.64
2017-05-21T08:36:40.075Z,1023.54
2017-05-21T08:37:49.719Z,1023.58
2017-05-21T08:38:59.999Z,1023.61
2017-05-21T08:40:10.268Z,1023.51
2017-05-21T08:41:19.908Z,1023.57
2017-05-21T08:42:29.863Z,1023.53
2017-05-21T08:43:39.819Z,1023.5
2017-05-21T08:44:50.089Z,1023.54
2017-05-21T08:45:59.724Z,1023.5
2017-05-21T08:47:09.999Z,1023.5
2017-05-21T08:48:19.949Z,1023.53
2017-05-21T08:49:29.588Z,1023.53
2017-05-21T08:50:39.861Z,1023.5
2017-05-21T08:51:49.812Z,1023.56
2017-05-21T08:52:59.448Z,1023.54
2017-05-21T08:54:09.401Z,1023.55
2017-05-21T08:55:19.048Z,1023.55
2017-05-21T08:56:28.999Z,1023.6
2017-05-21T08:57:38.944Z,1023.56
2017-05-21T08:58:48.591Z,1023.55
2017-05-21T08:59:58.545Z,1023.57
2017-05-21T09:01:07.582Z,1023.56
2017-05-21T09:02:17.852Z,1023.53
2017-05-21T09:03:27.487Z,1023.52
2017-05-21T09:04:37.127Z,1023.56
2017-05-21T09:05:47.081Z,1023.5
2017-05-21T09:06:56.712Z,1023.53
2017-05-21T09:08:06.976Z,1023.56
2017-05-21T09:09:17.252Z,1023.52
2017-05-21T09:10:26.891Z,1023.5
2017-05-21T09:11:36.856Z,1023.52
2017-05-21T09:12:47.125Z,1023.53
2017-05-21T09:13:56.763Z,1023.49
2017-05-21T09:15:06.719Z,1023.47
2017-05-21T09:16:16.986Z,1023.48
2017-05-21T09:17:26.929Z,1023.53
2017-05-21T09:18:36.573Z,1023.48
2017-05-21T09:19:46.217Z,1023.49
2017-05-21T09:20:56.204Z,1023.46
2017-05-21T09:22:06.153Z,1023.53
2017-05-21T09:23:16.108Z,1023.54
2017-05-21T09:24:25.741Z,1023.44
2017-05-21T09:25:35.693Z,1023.49
2017-05-21T09:26:45.011Z,1023.46
2017-05-21T09:27:54.339Z,1023.5
2017-05-21T09:29:04.610Z,1023.47
2017-05-21T09:30:14.565Z,1023.47
2017-05-21T09:31:24.837Z,1023.49
2017-05-21T09:32:34.478Z,1023.47
2017-05-21T09:33:44.116Z,1023.51
2017-05-21T09:34:54.385Z,1023.44
2017-05-21T09:36:04.020Z,1023.51
2017-05-21T09:37:14.286Z,1023.49
2017-05-21T09:38:23.609Z,1023.45
2017-05-21T09:39:33.251Z,1023.47
2017-05-21T09:40:42.581Z,1023.53
2017-05-21T09:41:51.584Z,1023.47
2017-05-21T09:43:01.546Z,1023.54
2017-05-21T09:44:11.183Z,1023.54
2017-05-21T09:45:21.143Z,1023.52
2017-05-21T09:46:31.107Z,1023.51
2017-05-21T09:47:40.426Z,1023.5
2017-05-21T09:48:50.062Z,1023.47
2017-05-21T09:50:00.011Z,1023.51
2017-05-21T09:51:10.266Z,1023.5
2017-05-21T09:52:19.912Z,1023.46
2017-05-21T09:53:29.862Z,1023.46
2017-05-21T09:54:39.503Z,1023.44
2017-05-21T09:55:49.459Z,1023.44
2017-05-21T09:56:59.099Z,1023.43
2017-05-21T09:58:09.056Z,1023.41
2017-05-21T09:59:18.695Z,1023.43
2017-05-21T10:00:28.654Z,1023.42
2017-05-21T10:01:38.936Z,1023.44
2017-05-21T10:02:48.572Z,1023.46
2017-05-21T10:03:58.833Z,1023.47
2017-05-21T10:05:08.155Z,1023.44
2017-05-21T10:06:18.110Z,1023.39
2017-05-21T10:07:27.435Z,1023.38
2017-05-21T10:08:37.073Z,1023.38
2017-05-21T10:09:47.343Z,1023.4
2017-05-21T10:10:56.351Z,1023.42
2017-05-21T10:12:06.300Z,1023.41
2017-05-21T10:13:16.258Z,1023.42
2017-05-21T10:14:26.530Z,1023.41
2017-05-21T10:15:36.798Z,1023.43
2017-05-21T10:16:45.809Z,1023.38
2017-05-21T10:17:55.768Z,1023.38
2017-05-21T10:19:05.408Z,1023.36
2017-05-21T10:20:15.060Z,1023.41
2017-05-21T10:21:25.010Z,1023.35
2017-05-21T10:22:34.963Z,1023.35
2017-05-21T10:23:44.915Z,1023.34
2017-05-21T10:24:54.883Z,1023.33
2017-05-21T10:26:04.525Z,1023.25
2017-05-21T10:27:14.165Z,1023.33
2017-05-21T10:28:24.123Z,1023.33
2017-05-21T10:29:34.079Z,1023.32
2017-05-21T10:30:44.032Z,1023.19
2017-05-21T10:31:53.669Z,1023.27
2017-05-21T10:33:03.301Z,1023.26
2017-05-21T10:34:13.257Z,1023.27
2017-05-21T10:35:23.222Z,1023.25
2017-05-21T10:36:33.179Z,1023.27
2017-05-21T10:37:43.137Z,1023.25
2017-05-21T10:38:53.411Z,1023.26
2017-05-21T10:40:03.053Z,1023.26
2017-05-21T10:41:12.690Z,1023.21
2017-05-21T10:42:22.645Z,1023.2
2017-05-21T10:43:32.279Z,1023.18
2017-05-21T10:44:42.237Z,1023.19
2017-05-21T10:45:51.878Z,1023.15
2017-05-21T10:47:02.143Z,1023.14
2017-05-21T10:48:12.096Z,1023.15
2017-05-21T10:49:22.359Z,1023.14
2017-05-21T10:50:31.995Z,1023.19
2017-05-21T10:51:41.942Z,1023.12
2017-05-21T10:52:52.208Z,1023.05
2017-05-21T10:54:01.846Z,1023.06
2017-05-21T10:55:12.119Z,1023.04
2017-05-21T10:56:22.069Z,1023.01
2017-05-21T10:57:32.027Z,1022.98
2017-05-21T10:58:41.979Z,1022.99
2017-05-21T10:59:51.931Z,1022.94
2017-05-21T11:01:01.881Z,1022.98
2017-05-21T11:02:11.839Z,1022.97
2017-05-21T11:03:21.476Z,1023.01
2017-05-21T11:04:30.801Z,1023.03
2017-05-21T11:05:41.066Z,1022.9
2017-05-21T11:06:51.015Z,1022.94
2017-05-21T11:08:00.645Z,1022.97
2017-05-21T11:09:10.918Z,1022.97
2017-05-21T11:10:21.192Z,1022.94
2017-05-21T11:11:31.455Z,1022.91
2017-05-21T11:12:41.406Z,1022.89
2017-05-21T11:13:51.355Z,1022.95
2017-05-21T11:15:01.308Z,1022.93
2017-05-21T11:16:11.574Z,1022.92
2017-05-21T11:17:21.213Z,1022.92
2017-05-21T11:18:31.473Z,1022.91
2017-05-21T11:19:41.739Z,1022.89
2017-05-21T11:20:50.745Z,1022.88
2017-05-21T11:22:00.380Z,1022.85
2017-05-21T11:23:10.647Z,1022.79
2017-05-21T11:24:20.917Z,1022.78
2017-05-21T11:25:31.185Z,1022.74
2017-05-21T11:26:41.143Z,1022.81
2017-05-21T11:27:50.781Z,1022.8
2017-05-21T11:29:00.106Z,1022.83
2017-05-21T11:30:09.750Z,1022.78
2017-05-21T11:31:19.389Z,1022.79
2017-05-21T11:32:29.340Z,1022.81
2017-05-21T11:33:39.619Z,1022.82
2017-05-21T11:34:49.572Z,1022.81
2017-05-21T11:35:59.216Z,1022.79
2017-05-21T11:37:09.169Z,1022.79
2017-05-21T11:38:19.124Z,1022.76
2017-05-21T11:39:29.392Z,1022.76
2017-05-21T11:40:39.665Z,1022.74
2017-05-21T11:41:49.303Z,1022.74
2017-05-21T11:42:58.932Z,1022.7
2017-05-21T11:44:09.202Z,1022.71
2017-05-21T11:45:19.473Z,1022.71
2017-05-21T11:46:29.745Z,1022.71
2017-05-21T11:47:39.388Z,1022.73
2017-05-21T11:48:49.664Z,1022.64
2017-05-21T11:49:59.620Z,1022.66
2017-05-21T11:51:09.894Z,1022.64
2017-05-21T11:52:19.843Z,1022.65
2017-05-21T11:53:30.120Z,1022.68
2017-05-21T11:54:40.068Z,1022.66
2017-05-21T11:55:50.021Z,1022.69
2017-05-21T11:56:59.660Z,1022.67
2017-05-21T11:58:09.607Z,1022.67
2017-05-21T11:59:18.932Z,1022.65
2017-05-21T12:00:28.886Z,1022.64
2017-05-21T12:01:38.525Z,1022.6
2017-05-21T12:02:48.793Z,1022.62
2017-05-21T12:03:58.436Z,1022.65
2017-05-21T12:05:08.400Z,1022.66
2017-05-21T12:06:18.667Z,1022.67
2017-05-21T12:07:28.989Z,1022.71
2017-05-21T12:08:38.948Z,1022.62
2017-05-21T12:09:48.919Z,1022.66
2017-05-21T12:10:58.872Z,1022.58
2017-05-21T12:12:09.147Z,1022.63
2017-05-21T12:13:19.411Z,1022.63
2017-05-21T12:14:29.051Z,1022.63
2017-05-21T12:15:39.037Z,1022.64
2017-05-21T12:16:48.669Z,1022.63
2017-05-21T12:17:58.303Z,1022.58
2017-05-21T12:19:08.266Z,1022.62
2017-05-21T12:20:18.544Z,1022.63
2017-05-21T12:21:28.174Z,1022.61
2017-05-21T12:22:38.145Z,1022.6
2017-05-21T12:23:47.465Z,1022.63
2017-05-21T12:24:57.103Z,1022.6
2017-05-21T12:26:06.115Z,1022.58
2017-05-21T12:27:16.068Z,1022.59
2017-05-21T12:28:26.334Z,1022.59
2017-05-21T12:29:36.293Z,1022.58
2017-05-21T12:30:45.957Z,1022.58
2017-05-21T12:31:55.911Z,1022.57
2017-05-21T12:33:05.887Z,1022.55
2017-05-21T12:34:15.547Z,1022.54
2017-05-21T12:35:25.506Z,1022.52
2017-05-21T12:36:35.459Z,1022.56
2017-05-21T12:37:45.092Z,1022.54
2017-05-21T12:38:55.055Z,1022.5
2017-05-21T12:40:05.325Z,1022.57
2017-05-21T12:41:15.276Z,1022.53
2017-05-21T12:42:25.224Z,1022.53
2017-05-21T12:43:34.859Z,1022.52
2017-05-21T12:44:45.125Z,1022.56
2017-05-21T12:45:55.395Z,1022.59
2017-05-21T12:47:05.663Z,1022.51
2017-05-21T12:48:15.932Z,1022.48
2017-05-21T12:49:25.901Z,1022.57
2017-05-21T12:50:35.554Z,1022.52
2017-05-21T12:51:45.821Z,1022.51
2017-05-21T12:52:55.471Z,1022.54
2017-05-21T12:54:05.108Z,1022.56
2017-05-21T12:55:15.382Z,1022.54
2017-05-21T12:56:24.395Z,1022.54
2017-05-21T12:57:33.717Z,1022.48
2017-05-21T12:58:43.982Z,1022.51
2017-05-21T12:59:53.615Z,1022.42
2017-05-21T13:01:03.889Z,1022.47
2017-05-21T13:02:13.844Z,1022.45
2017-05-21T13:03:23.792Z,1022.48
2017-05-21T13:04:33.748Z,1022.47
2017-05-21T13:05:44.016Z,1022.48
2017-05-21T13:06:53.969Z,1022.48
2017-05-21T13:08:03.923Z,1022.48
2017-05-21T13:09:13.558Z,1022.47
2017-05-21T13:10:23.205Z,1022.48
2017-05-21T13:11:32.843Z,1022.42
2017-05-21T13:12:43.110Z,1022.44
2017-05-21T13:13:52.436Z,1022.44
2017-05-21T13:15:02.392Z,1022.39
2017-05-21T13:16:11.718Z,1022.4
2017-05-21T13:17:21.988Z,1022.41
2017-05-21T13:18:32.259Z,1022.38
2017-05-21T13:19:42.529Z,1022.4
2017-05-21T13:20:52.482Z,1022.33
2017-05-21T13:22:01.856Z,1022.38
2017-05-21T13:23:11.816Z,1022.38
2017-05-21T13:24:21.447Z,1022.39
2017-05-21T13:25:30.140Z,1022.4
2017-05-21T13:26:39.776Z,1022.3
2017-05-21T13:27:48.781Z,1022.4
2017-05-21T13:28:58.425Z,1022.36
2017-05-21T13:30:08.690Z,1022.36
2017-05-21T13:31:18.336Z,1022.37
2017-05-21T13:32:28.613Z,1022.34
2017-05-21T13:33:38.582Z,1022.37
2017-05-21T13:34:48.228Z,1022.3
2017-05-21T13:35:57.554Z,1022.29
2017-05-21T13:37:07.513Z,1022.32
2017-05-21T13:38:17.161Z,1022.32
2017-05-21T13:39:27.431Z,1022.34
2017-05-21T13:40:37.696Z,1022.26
2017-05-21T13:41:47.333Z,1022.26
2017-05-21T13:42:57.284Z,1022.31
2017-05-21T13:44:07.233Z,1022.27
2017-05-21T13:45:16.869Z,1022.23
2017-05-21T13:46:26.819Z,1022.22
2017-05-21T13:47:36.510Z,1022.24
2017-05-21T13:48:46.840Z,1022.21
2017-05-21T13:49:56.473Z,1022.21
2017-05-21T13:51:06.427Z,1022.26
2017-05-21T13:52:16.389Z,1022.2
2017-05-21T13:53:26.664Z,1022.26
2017-05-21T13:54:36.933Z,1022.24
2017-05-21T13:55:45.625Z,1022.23
2017-05-21T13:56:55.578Z,1022.2
2017-05-21T13:58:05.213Z,1022.17
2017-05-21T13:59:14.863Z,1022.23
2017-05-21T14:00:24.860Z,1022.23
2017-05-21T14:01:34.499Z,1022.23
2017-05-21T14:02:44.144Z,1022.22
2017-05-21T14:03:54.100Z,1022.2
2017-05-21T14:05:04.056Z,1022.21
2017-05-21T14:06:13.387Z,1022.15
2017-05-21T14:07:23.035Z,1022.14
2017-05-21T14:08:32.674Z,1022.13